Vasiliy Bozhenko — URHP — position and weather

sailwx.info

Track history (hours):
 
Tides and Currents Weather Stations Pressure Air Temp Water Temp Dewpoint Dewpoint Depression Visibility Wind Speed Wind Dir Waves Ship Positions

Vasiliy Bozhenko

Last reported at 2014-Nov-28 05:33 UTC. Time now 2014-Nov-28 20:33 UTC.
Position N 41°22' E 029°14'.

Length 114 m; draft 3.8 m.

Type: Cargo ship. MMSI: 272085000.

Date/timePositionNaut miles runAvg speedWind from/ knotsBaromVisibWave heightAir tempDewpointWater temp
2014-Nov-28 05:33N 41°22' E 029°14'26 6.5
2014-Nov-28 01:33N 40°58' E 028°59'3 2.6
2014-Nov-28 00:33N 40°58' E 028°56'0 0.1
2014-Nov-27 21:24N 40°58' E 028°56'0 0.0
2014-Nov-27 19:29N 40°58' E 028°56'0 0.0
2014-Nov-27 17:32N 40°58' E 028°56'0 0.0
2014-Nov-27 14:15N 40°58' E 028°56'3 0.2
2014-Nov-27 03:33N 40°56' E 028°57'7 6.7
2014-Nov-27 02:30N 40°50' E 028°52'  
2014-Nov-21 15:24N 40°55' E 028°52'7 8.5
2014-Nov-21 14:33N 40°60' E 028°59'38 5.3
2014-Nov-21 07:23N 41°24' E 029°39'  
Track history (hours):
 
Tides and Currents Weather Stations Pressure Air Temp Water Temp Dewpoint Dewpoint Depression Visibility Wind Speed Wind Dir Waves Ship Positions

Vasiliy Bozhenko

Last reported at 2014-Nov-28 05:33 UTC. Time now 2014-Nov-28 20:33 UTC.
Position N 41°22' E 029°14'.

Length 114 m; draft 3.8 m.

Type: Cargo ship. MMSI: 272085000.

Date/timePositionNaut miles runAvg speedWind from/ knotsBaromVisibWave heightAir tempDewpointWater temp
2014-Nov-28 05:33N 41°22' E 029°14'26 6.5
2014-Nov-28 01:33N 40°58' E 028°59'3 2.6
2014-Nov-28 00:33N 40°58' E 028°56'0 0.1
2014-Nov-27 21:24N 40°58' E 028°56'0 0.0
2014-Nov-27 19:29N 40°58' E 028°56'0 0.0
2014-Nov-27 17:32N 40°58' E 028°56'0 0.0
2014-Nov-27 14:15N 40°58' E 028°56'3 0.2
2014-Nov-27 03:33N 40°56' E 028°57'7 6.7
2014-Nov-27 02:30N 40°50' E 028°52'  
2014-Nov-21 15:24N 40°55' E 028°52'7 8.5
2014-Nov-21 14:33N 40°60' E 028°59'38 5.3
2014-Nov-21 07:23N 41°24' E 029°39'  

Dump ship's entire track history